sensor_id;sensor_type;location;lat;lon;timestamp;temperature;humidity
19174;DHT22;9719;49.322;8.536;2023-12-28T00:00:40;4.30;99.90
19174;DHT22;9719;49.322;8.536;2023-12-28T00:05:42;4.20;99.90
19174;DHT22;9719;49.322;8.536;2023-12-28T00:10:45;4.10;99.90
19174;DHT22;9719;49.322;8.536;2023-12-28T00:15:46;4.00;99.90
19174;DHT22;9719;49.322;8.536;2023-12-28T00:20:48;4.00;99.90
19174;DHT22;9719;49.322;8.536;2023-12-28T00:25:51;3.90;99.90
19174;DHT22;9719;49.322;8.536;2023-12-28T00:30:52;3.90;99.90
19174;DHT22;9719;49.322;8.536;2023-12-28T00:35:54;3.80;99.90
19174;DHT22;9719;49.322;8.536;2023-12-28T00:40:57;3.70;99.90
19174;DHT22;9719;49.322;8.536;2023-12-28T00:45:59;3.70;99.90
19174;DHT22;9719;49.322;8.536;2023-12-28T00:51:01;3.60;99.90
19174;DHT22;9719;49.322;8.536;2023-12-28T00:56:04;3.80;99.90
19174;DHT22;9719;49.322;8.536;2023-12-28T01:01:06;3.80;99.90
19174;DHT22;9719;49.322;8.536;2023-12-28T01:06:08;3.70;99.90
19174;DHT22;9719;49.322;8.536;2023-12-28T01:11:12;3.80;99.90
19174;DHT22;9719;49.322;8.536;2023-12-28T01:16:13;3.80;99.90
19174;DHT22;9719;49.322;8.536;2023-12-28T01:21:15;3.90;99.90
19174;DHT22;9719;49.322;8.536;2023-12-28T01:26:19;3.90;99.90
19174;DHT22;9719;49.322;8.536;2023-12-28T01:31:20;4.10;99.90
19174;DHT22;9719;49.322;8.536;2023-12-28T01:36:22;4.10;99.90
19174;DHT22;9719;49.322;8.536;2023-12-28T01:41:25;4.20;99.90
19174;DHT22;9719;49.322;8.536;2023-12-28T01:46:27;4.30;99.90
19174;DHT22;9719;49.322;8.536;2023-12-28T01:51:29;4.50;99.90
19174;DHT22;9719;49.322;8.536;2023-12-28T01:56:32;4.90;99.90
19174;DHT22;9719;49.322;8.536;2023-12-28T02:01:34;5.40;99.90
19174;DHT22;9719;49.322;8.536;2023-12-28T02:06:36;5.80;99.90
19174;DHT22;9719;49.322;8.536;2023-12-28T02:11:39;6.30;99.90
19174;DHT22;9719;49.322;8.536;2023-12-28T02:16:46;6.60;99.90
19174;DHT22;9719;49.322;8.536;2023-12-28T02:21:48;6.80;99.90
19174;DHT22;9719;49.322;8.536;2023-12-28T02:26:52;7.00;99.90
19174;DHT22;9719;49.322;8.536;2023-12-28T02:31:58;7.30;99.90
19174;DHT22;9719;49.322;8.536;2023-12-28T02:37:03;7.40;99.90
19174;DHT22;9719;49.322;8.536;2023-12-28T02:42:07;7.60;99.90
19174;DHT22;9719;49.322;8.536;2023-12-28T02:47:09;7.70;99.90
19174;DHT22;9719;49.322;8.536;2023-12-28T02:52:10;7.90;99.90
19174;DHT22;9719;49.322;8.536;2023-12-28T02:57:13;8.10;99.90
19174;DHT22;9719;49.322;8.536;2023-12-28T03:02:18;8.20;99.90
19174;DHT22;9719;49.322;8.536;2023-12-28T03:07:20;8.20;99.90
19174;DHT22;9719;49.322;8.536;2023-12-28T03:12:23;8.30;99.90
19174;DHT22;9719;49.322;8.536;2023-12-28T03:17:24;8.40;99.90
19174;DHT22;9719;49.322;8.536;2023-12-28T03:22:26;8.40;99.90
19174;DHT22;9719;49.322;8.536;2023-12-28T03:27:29;8.40;99.90
19174;DHT22;9719;49.322;8.536;2023-12-28T03:32:31;8.40;99.90
19174;DHT22;9719;49.322;8.536;2023-12-28T03:37:32;8.40;99.90
19174;DHT22;9719;49.322;8.536;2023-12-28T03:42:35;8.60;99.90
19174;DHT22;9719;49.322;8.536;2023-12-28T03:47:38;8.70;99.90
19174;DHT22;9719;49.322;8.536;2023-12-28T03:52:40;8.70;99.90
19174;DHT22;9719;49.322;8.536;2023-12-28T03:57:43;8.80;99.90
19174;DHT22;9719;49.322;8.536;2023-12-28T04:02:46;8.90;99.90
19174;DHT22;9719;49.322;8.536;2023-12-28T04:07:48;9.30;99.90
19174;DHT22;9719;49.322;8.536;2023-12-28T04:12:51;9.30;99.90
19174;DHT22;9719;49.322;8.536;2023-12-28T04:17:55;9.40;99.90
19174;DHT22;9719;49.322;8.536;2023-12-28T04:22:57;9.70;99.90
19174;DHT22;9719;49.322;8.536;2023-12-28T04:28:00;9.80;99.90
19174;DHT22;9719;49.322;8.536;2023-12-28T04:33:03;10.00;99.90
19174;DHT22;9719;49.322;8.536;2023-12-28T04:38:05;10.30;99.90
19174;DHT22;9719;49.322;8.536;2023-12-28T04:43:07;10.20;99.90
19174;DHT22;9719;49.322;8.536;2023-12-28T04:48:09;10.10;99.90
19174;DHT22;9719;49.322;8.536;2023-12-28T04:53:11;9.90;99.90
19174;DHT22;9719;49.322;8.536;2023-12-28T04:58:14;9.60;99.90
19174;DHT22;9719;49.322;8.536;2023-12-28T05:03:16;9.40;99.90
19174;DHT22;9719;49.322;8.536;2023-12-28T05:08:17;9.50;99.90
19174;DHT22;9719;49.322;8.536;2023-12-28T05:13:20;9.30;99.90
19174;DHT22;9719;49.322;8.536;2023-12-28T05:18:22;9.40;99.90
19174;DHT22;9719;49.322;8.536;2023-12-28T05:23:24;9.60;99.90
19174;DHT22;9719;49.322;8.536;2023-12-28T05:28:27;9.70;99.90
19174;DHT22;9719;49.322;8.536;2023-12-28T05:33:29;9.70;99.90
19174;DHT22;9719;49.322;8.536;2023-12-28T05:38:30;9.30;99.90
19174;DHT22;9719;49.322;8.536;2023-12-28T05:43:34;9.10;99.90
19174;DHT22;9719;49.322;8.536;2023-12-28T05:48:35;9.10;99.90
19174;DHT22;9719;49.322;8.536;2023-12-28T05:53:37;9.00;99.90
19174;DHT22;9719;49.322;8.536;2023-12-28T05:58:40;9.20;99.90
19174;DHT22;9719;49.322;8.536;2023-12-28T06:03:41;9.40;99.90
19174;DHT22;9719;49.322;8.536;2023-12-28T06:08:43;9.60;99.90
19174;DHT22;9719;49.322;8.536;2023-12-28T06:13:46;9.70;99.90
19174;DHT22;9719;49.322;8.536;2023-12-28T06:18:48;9.70;99.90
19174;DHT22;9719;49.322;8.536;2023-12-28T06:23:49;9.70;99.90
19174;DHT22;9719;49.322;8.536;2023-12-28T06:28:52;9.70;99.90
19174;DHT22;9719;49.322;8.536;2023-12-28T06:33:54;9.60;99.90
19174;DHT22;9719;49.322;8.536;2023-12-28T06:38:56;9.60;99.90
19174;DHT22;9719;49.322;8.536;2023-12-28T06:43:59;9.60;99.90
19174;DHT22;9719;49.322;8.536;2023-12-28T06:49:00;9.60;99.90
19174;DHT22;9719;49.322;8.536;2023-12-28T06:54:02;9.60;99.90
19174;DHT22;9719;49.322;8.536;2023-12-28T06:59:05;9.70;99.90
19174;DHT22;9719;49.322;8.536;2023-12-28T07:04:07;9.70;99.90
19174;DHT22;9719;49.322;8.536;2023-12-28T07:09:09;9.70;99.90
19174;DHT22;9719;49.322;8.536;2023-12-28T07:14:12;9.90;99.90
19174;DHT22;9719;49.322;8.536;2023-12-28T07:19:14;9.70;99.90
19174;DHT22;9719;49.322;8.536;2023-12-28T07:24:15;9.70;99.90
19174;DHT22;9719;49.322;8.536;2023-12-28T07:29:18;9.60;99.90
19174;DHT22;9719;49.322;8.536;2023-12-28T07:34:20;9.60;99.90
19174;DHT22;9719;49.322;8.536;2023-12-28T07:39:22;9.60;99.90
19174;DHT22;9719;49.322;8.536;2023-12-28T07:44:24;9.60;99.90
19174;DHT22;9719;49.322;8.536;2023-12-28T07:49:26;9.70;99.90
19174;DHT22;9719;49.322;8.536;2023-12-28T07:54:28;9.80;99.90
19174;DHT22;9719;49.322;8.536;2023-12-28T07:59:31;9.70;99.90
19174;DHT22;9719;49.322;8.536;2023-12-28T08:04:33;9.70;99.90
19174;DHT22;9719;49.322;8.536;2023-12-28T08:09:35;9.70;99.90
19174;DHT22;9719;49.322;8.536;2023-12-28T08:14:38;9.80;99.90
19174;DHT22;9719;49.322;8.536;2023-12-28T08:19:40;9.70;99.90
19174;DHT22;9719;49.322;8.536;2023-12-28T08:24:42;9.60;99.90
19174;DHT22;9719;49.322;8.536;2023-12-28T08:29:46;9.60;99.90
19174;DHT22;9719;49.322;8.536;2023-12-28T08:34:47;9.60;99.90
19174;DHT22;9719;49.322;8.536;2023-12-28T08:39:49;9.60;99.90
19174;DHT22;9719;49.322;8.536;2023-12-28T08:44:52;9.60;99.90
19174;DHT22;9719;49.322;8.536;2023-12-28T08:49:54;9.70;99.90
19174;DHT22;9719;49.322;8.536;2023-12-28T08:54:55;9.80;99.90
19174;DHT22;9719;49.322;8.536;2023-12-28T08:59:59;9.70;99.90
19174;DHT22;9719;49.322;8.536;2023-12-28T09:05:04;9.70;99.90
19174;DHT22;9719;49.322;8.536;2023-12-28T09:10:06;9.70;99.90
19174;DHT22;9719;49.322;8.536;2023-12-28T09:15:09;9.80;99.90
19174;DHT22;9719;49.322;8.536;2023-12-28T09:20:11;9.80;99.90
19174;DHT22;9719;49.322;8.536;2023-12-28T09:25:13;9.80;99.90
19174;DHT22;9719;49.322;8.536;2023-12-28T09:30:16;9.70;99.90
19174;DHT22;9719;49.322;8.536;2023-12-28T09:35:18;9.60;99.90
19174;DHT22;9719;49.322;8.536;2023-12-28T09:40:20;9.50;99.90
19174;DHT22;9719;49.322;8.536;2023-12-28T09:45:23;9.60;99.90
19174;DHT22;9719;49.322;8.536;2023-12-28T09:50:24;9.40;99.90
19174;DHT22;9719;49.322;8.536;2023-12-28T09:55:27;9.40;99.90
19174;DHT22;9719;49.322;8.536;2023-12-28T10:00:30;9.50;99.90
19174;DHT22;9719;49.322;8.536;2023-12-28T10:05:32;9.40;99.90
19174;DHT22;9719;49.322;8.536;2023-12-28T10:10:33;9.50;99.90
19174;DHT22;9719;49.322;8.536;2023-12-28T10:15:37;9.40;99.90
19174;DHT22;9719;49.322;8.536;2023-12-28T10:20:39;9.60;99.90
19174;DHT22;9719;49.322;8.536;2023-12-28T10:25:40;9.50;99.90
19174;DHT22;9719;49.322;8.536;2023-12-28T10:30:44;9.60;99.90
19174;DHT22;9719;49.322;8.536;2023-12-28T10:35:46;9.50;99.90
19174;DHT22;9719;49.322;8.536;2023-12-28T10:40:48;9.50;99.90
19174;DHT22;9719;49.322;8.536;2023-12-28T10:45:53;9.40;99.90
19174;DHT22;9719;49.322;8.536;2023-12-28T10:50:57;9.40;99.90
19174;DHT22;9719;49.322;8.536;2023-12-28T10:56:06;9.50;99.90
19174;DHT22;9719;49.322;8.536;2023-12-28T11:01:21;9.40;99.90
19174;DHT22;9719;49.322;8.536;2023-12-28T11:06:26;9.40;99.90
19174;DHT22;9719;49.322;8.536;2023-12-28T11:11:30;9.30;99.90
19174;DHT22;9719;49.322;8.536;2023-12-28T11:16:34;9.20;99.90
19174;DHT22;9719;49.322;8.536;2023-12-28T11:21:36;9.10;99.90
19174;DHT22;9719;49.322;8.536;2023-12-28T11:26:38;9.10;99.90
19174;DHT22;9719;49.322;8.536;2023-12-28T11:31:41;9.20;99.90
19174;DHT22;9719;49.322;8.536;2023-12-28T11:36:48;9.20;99.90
19174;DHT22;9719;49.322;8.536;2023-12-28T11:41:51;9.20;99.90
19174;DHT22;9719;49.322;8.536;2023-12-28T11:46:54;9.30;99.90
19174;DHT22;9719;49.322;8.536;2023-12-28T11:51:57;9.30;99.90
19174;DHT22;9719;49.322;8.536;2023-12-28T14:24:11;9.60;99.90
19174;DHT22;9719;49.322;8.536;2023-12-28T14:29:13;9.60;99.90
19174;DHT22;9719;49.322;8.536;2023-12-28T14:34:16;9.60;99.90
19174;DHT22;9719;49.322;8.536;2023-12-28T14:39:19;9.70;99.90
19174;DHT22;9719;49.322;8.536;2023-12-28T14:44:21;9.40;99.90
19174;DHT22;9719;49.322;8.536;2023-12-28T14:49:23;9.60;99.90
19174;DHT22;9719;49.322;8.536;2023-12-28T14:54:26;9.40;99.90
19174;DHT22;9719;49.322;8.536;2023-12-28T14:59:27;9.40;99.90
19174;DHT22;9719;49.322;8.536;2023-12-28T15:04:29;9.30;99.90
19174;DHT22;9719;49.322;8.536;2023-12-28T15:09:32;9.20;99.90
19174;DHT22;9719;49.322;8.536;2023-12-28T15:14:34;9.20;99.90
19174;DHT22;9719;49.322;8.536;2023-12-28T15:19:37;9.10;99.90
19174;DHT22;9719;49.322;8.536;2023-12-28T15:24:41;9.00;99.90
19174;DHT22;9719;49.322;8.536;2023-12-28T15:29:42;9.20;99.90
19174;DHT22;9719;49.322;8.536;2023-12-28T15:34:44;9.00;99.90
19174;DHT22;9719;49.322;8.536;2023-12-28T15:39:47;9.00;99.90
19174;DHT22;9719;49.322;8.536;2023-12-28T15:44:49;8.90;99.90
19174;DHT22;9719;49.322;8.536;2023-12-28T15:49:51;8.90;99.90
19174;DHT22;9719;49.322;8.536;2023-12-28T15:54:54;8.90;99.90
19174;DHT22;9719;49.322;8.536;2023-12-28T15:59:55;8.90;99.90
19174;DHT22;9719;49.322;8.536;2023-12-28T16:04:59;8.90;99.90
19174;DHT22;9719;49.322;8.536;2023-12-28T16:10:02;8.70;99.90
19174;DHT22;9719;49.322;8.536;2023-12-28T16:15:07;8.90;99.90
19174;DHT22;9719;49.322;8.536;2023-12-28T16:20:10;8.80;99.90
19174;DHT22;9719;49.322;8.536;2023-12-28T16:25:13;8.70;99.90
19174;DHT22;9719;49.322;8.536;2023-12-28T16:30:15;8.80;99.90
19174;DHT22;9719;49.322;8.536;2023-12-28T16:35:16;8.80;99.90
19174;DHT22;9719;49.322;8.536;2023-12-28T16:40:19;8.80;99.90
19174;DHT22;9719;49.322;8.536;2023-12-28T16:45:21;8.80;99.90
19174;DHT22;9719;49.322;8.536;2023-12-28T16:50:23;8.90;99.90
19174;DHT22;9719;49.322;8.536;2023-12-28T16:55:26;8.90;99.90
19174;DHT22;9719;49.322;8.536;2023-12-28T17:00:30;8.90;99.90
19174;DHT22;9719;49.322;8.536;2023-12-28T17:05:32;8.90;99.90
19174;DHT22;9719;49.322;8.536;2023-12-28T17:10:35;9.00;99.90
19174;DHT22;9719;49.322;8.536;2023-12-28T17:15:40;8.90;99.90
19174;DHT22;9719;49.322;8.536;2023-12-28T17:20:42;8.90;99.90
19174;DHT22;9719;49.322;8.536;2023-12-28T17:25:50;8.90;99.90
19174;DHT22;9719;49.322;8.536;2023-12-28T17:30:54;9.00;99.90
19174;DHT22;9719;49.322;8.536;2023-12-28T17:35:57;8.80;99.90
19174;DHT22;9719;49.322;8.536;2023-12-28T17:41:01;8.90;99.90
19174;DHT22;9719;49.322;8.536;2023-12-28T17:46:07;8.80;99.90
19174;DHT22;9719;49.322;8.536;2023-12-28T17:51:12;8.70;99.90
19174;DHT22;9719;49.322;8.536;2023-12-28T17:56:16;8.80;99.90
19174;DHT22;9719;49.322;8.536;2023-12-28T18:01:18;8.70;99.90
19174;DHT22;9719;49.322;8.536;2023-12-28T18:06:20;8.70;99.90
19174;DHT22;9719;49.322;8.536;2023-12-28T18:11:24;8.70;99.90
19174;DHT22;9719;49.322;8.536;2023-12-28T18:16:25;8.70;99.90
19174;DHT22;9719;49.322;8.536;2023-12-28T18:21:27;8.70;99.90
19174;DHT22;9719;49.322;8.536;2023-12-28T18:26:30;8.60;99.90
19174;DHT22;9719;49.322;8.536;2023-12-28T18:31:32;8.60;99.90
19174;DHT22;9719;49.322;8.536;2023-12-28T18:36:33;8.70;99.90
19174;DHT22;9719;49.322;8.536;2023-12-28T18:41:37;8.60;99.90
19174;DHT22;9719;49.322;8.536;2023-12-28T18:46:39;8.60;99.90
19174;DHT22;9719;49.322;8.536;2023-12-28T18:51:40;8.60;99.90
19174;DHT22;9719;49.322;8.536;2023-12-28T18:56:43;8.60;99.90
19174;DHT22;9719;49.322;8.536;2023-12-28T19:01:46;8.70;99.90
19174;DHT22;9719;49.322;8.536;2023-12-28T19:06:49;8.60;99.90
19174;DHT22;9719;49.322;8.536;2023-12-28T19:11:52;8.60;99.90
19174;DHT22;9719;49.322;8.536;2023-12-28T19:16:54;8.70;99.90
19174;DHT22;9719;49.322;8.536;2023-12-28T19:21:56;8.70;99.90
19174;DHT22;9719;49.322;8.536;2023-12-28T19:26:59;8.60;99.90
19174;DHT22;9719;49.322;8.536;2023-12-28T19:32:01;8.70;99.90
19174;DHT22;9719;49.322;8.536;2023-12-28T19:37:03;8.70;99.90
19174;DHT22;9719;49.322;8.536;2023-12-28T19:42:07;8.70;99.90
19174;DHT22;9719;49.322;8.536;2023-12-28T19:47:09;8.60;99.90
19174;DHT22;9719;49.322;8.536;2023-12-28T19:52:10;8.70;99.90
19174;DHT22;9719;49.322;8.536;2023-12-28T19:57:15;8.80;99.90
19174;DHT22;9719;49.322;8.536;2023-12-28T20:02:16;8.90;99.90
19174;DHT22;9719;49.322;8.536;2023-12-28T20:07:19;8.80;99.90
19174;DHT22;9719;49.322;8.536;2023-12-28T20:12:23;8.70;99.90
19174;DHT22;9719;49.322;8.536;2023-12-28T20:17:25;8.90;99.90
19174;DHT22;9719;49.322;8.536;2023-12-28T20:22:26;8.80;99.90
19174;DHT22;9719;49.322;8.536;2023-12-28T20:27:29;8.80;99.90
19174;DHT22;9719;49.322;8.536;2023-12-28T20:32:31;8.80;99.90
19174;DHT22;9719;49.322;8.536;2023-12-28T20:37:33;8.80;99.90
19174;DHT22;9719;49.322;8.536;2023-12-28T20:42:36;8.90;99.90
19174;DHT22;9719;49.322;8.536;2023-12-28T20:47:38;8.80;99.90
19174;DHT22;9719;49.322;8.536;2023-12-28T20:52:40;8.80;99.90
19174;DHT22;9719;49.322;8.536;2023-12-28T20:57:43;8.80;99.90
19174;DHT22;9719;49.322;8.536;2023-12-28T21:02:45;8.90;99.90
19174;DHT22;9719;49.322;8.536;2023-12-28T21:07:46;8.80;99.90
19174;DHT22;9719;49.322;8.536;2023-12-28T21:12:49;8.80;99.90
19174;DHT22;9719;49.322;8.536;2023-12-28T21:18:01;8.60;99.90
19174;DHT22;9719;49.322;8.536;2023-12-28T21:23:03;8.60;99.90
19174;DHT22;9719;49.322;8.536;2023-12-28T21:28:06;8.70;99.90
19174;DHT22;9719;49.322;8.536;2023-12-28T21:33:09;8.60;99.90
19174;DHT22;9719;49.322;8.536;2023-12-28T21:38:10;8.70;99.90
19174;DHT22;9719;49.322;8.536;2023-12-28T21:43:13;8.60;99.90
19174;DHT22;9719;49.322;8.536;2023-12-28T21:48:15;8.60;99.90
19174;DHT22;9719;49.322;8.536;2023-12-28T21:53:17;8.50;99.90
19174;DHT22;9719;49.322;8.536;2023-12-28T21:58:19;8.60;99.90
19174;DHT22;9719;49.322;8.536;2023-12-28T22:03:22;8.50;99.90
19174;DHT22;9719;49.322;8.536;2023-12-28T22:08:23;8.60;99.90
19174;DHT22;9719;49.322;8.536;2023-12-28T22:13:26;8.80;99.90
19174;DHT22;9719;49.322;8.536;2023-12-28T22:18:28;8.80;99.90
19174;DHT22;9719;49.322;8.536;2023-12-28T22:23:30;8.70;99.90
19174;DHT22;9719;49.322;8.536;2023-12-28T22:28:33;8.70;99.90
19174;DHT22;9719;49.322;8.536;2023-12-28T22:33:35;8.60;99.90
19174;DHT22;9719;49.322;8.536;2023-12-28T22:38:36;8.70;99.90
19174;DHT22;9719;49.322;8.536;2023-12-28T22:43:39;8.70;99.90
19174;DHT22;9719;49.322;8.536;2023-12-28T22:48:41;8.70;99.90
19174;DHT22;9719;49.322;8.536;2023-12-28T22:53:43;8.60;99.90
19174;DHT22;9719;49.322;8.536;2023-12-28T22:58:46;8.60;99.90
19174;DHT22;9719;49.322;8.536;2023-12-28T23:03:48;8.60;99.90
19174;DHT22;9719;49.322;8.536;2023-12-28T23:08:49;8.70;99.90
19174;DHT22;9719;49.322;8.536;2023-12-28T23:13:52;8.80;99.90
19174;DHT22;9719;49.322;8.536;2023-12-28T23:18:55;8.90;99.90
19174;DHT22;9719;49.322;8.536;2023-12-28T23:23:56;9.00;99.90
19174;DHT22;9719;49.322;8.536;2023-12-28T23:28:59;9.10;99.90
19174;DHT22;9719;49.322;8.536;2023-12-28T23:34:01;9.20;99.90
19174;DHT22;9719;49.322;8.536;2023-12-28T23:39:03;9.20;99.90
19174;DHT22;9719;49.322;8.536;2023-12-28T23:44:07;9.20;99.90
19174;DHT22;9719;49.322;8.536;2023-12-28T23:49:09;9.20;99.90
19174;DHT22;9719;49.322;8.536;2023-12-28T23:54:10;9.30;99.90
19174;DHT22;9719;49.322;8.536;2023-12-28T23:59:13;9.20;99.90
